createdAt,value
2018-10-18T00:00:21.617Z,65.37
2018-10-18T00:02:51.337Z,62.10
2018-10-18T00:05:18.932Z,61.15
2018-10-18T00:07:46.524Z,62.57
2018-10-18T00:10:14.176Z,59.58
2018-10-18T00:12:41.745Z,62.30
2018-10-18T00:15:09.318Z,61.20
2018-10-18T00:17:36.899Z,57.40
2018-10-18T00:20:04.566Z,56.13
2018-10-18T00:22:33.331Z,61.90
2018-10-18T00:25:00.859Z,54.40
2018-10-18T00:27:28.374Z,60.87
2018-10-18T00:29:55.963Z,56.87
2018-10-18T00:32:23.724Z,58.57
2018-10-18T00:34:51.279Z,66.37
2018-10-18T00:37:18.861Z,62.40
2018-10-18T00:39:47.681Z,63.20
2018-10-18T00:42:16.721Z,59.10
2018-10-18T00:44:44.337Z,59.80
2018-10-18T00:47:11.918Z,58.17
2018-10-18T00:49:39.634Z,51.60
2018-10-18T00:52:07.159Z,54.33
2018-10-18T00:54:34.731Z,53.23
2018-10-18T00:57:02.837Z,52.43
2018-10-18T00:59:30.371Z,51.97
2018-10-18T01:01:58.005Z,52.17
2018-10-18T01:04:25.550Z,50.20
2018-10-18T01:06:53.119Z,53.33
2018-10-18T01:09:20.725Z,55.30
2018-10-18T01:11:48.785Z,57.30
2018-10-18T01:14:16.423Z,54.87
2018-10-18T01:16:44.108Z,49.90
2018-10-18T01:19:11.837Z,55.60
2018-10-18T01:21:39.447Z,55.43
2018-10-18T01:24:07.040Z,51.67
2018-10-18T01:26:34.573Z,51.67
2018-10-18T01:29:03.444Z,61.60
2018-10-18T01:31:31.023Z,56.47
2018-10-18T01:33:58.788Z,60.07
2018-10-18T01:36:26.357Z,58.13
2018-10-18T01:38:53.929Z,54.40
2018-10-18T01:41:21.551Z,49.73
2018-10-18T01:43:49.119Z,50.40
2018-10-18T01:46:16.642Z,54.73
2018-10-18T01:48:46.607Z,53.53
2018-10-18T01:51:14.799Z,49.63
2018-10-18T01:53:42.349Z,55.67
2018-10-18T01:56:10.014Z,51.07
2018-10-18T01:58:37.563Z,54.93
2018-10-18T02:01:05.101Z,54.33
2018-10-18T02:03:32.677Z,54.80
2018-10-18T02:06:00.220Z,54.40
2018-10-18T02:08:29.632Z,52.88
2018-10-18T02:10:57.184Z,51.63
2018-10-18T02:13:25.215Z,53.10
2018-10-18T02:15:52.805Z,55.00
2018-10-18T02:18:20.569Z,54.43
2018-10-18T02:20:48.071Z,55.63
2018-10-18T02:23:15.694Z,53.20
2018-10-18T02:25:43.266Z,50.90
2018-10-18T02:28:10.856Z,59.10
2018-10-18T02:30:38.411Z,52.40
2018-10-18T02:33:05.986Z,58.03
2018-10-18T02:35:33.563Z,51.03
2018-10-18T02:38:01.154Z,53.00
2018-10-18T02:40:28.704Z,51.77
2018-10-18T02:42:56.642Z,49.77
2018-10-18T02:45:25.015Z,51.90
2018-10-18T02:47:52.744Z,52.43
2018-10-18T02:50:22.363Z,49.10
2018-10-18T02:52:49.929Z,54.93
2018-10-18T02:55:17.461Z,47.55
2018-10-18T02:57:45.050Z,50.00
2018-10-18T03:00:12.744Z,52.00
2018-10-18T03:02:40.282Z,48.90
2018-10-18T03:05:08.049Z,50.12
2018-10-18T03:07:37.098Z,51.50
2018-10-18T03:10:06.627Z,48.30
2018-10-18T03:12:34.164Z,62.57
2018-10-18T03:15:01.765Z,48.60
2018-10-18T03:17:29.360Z,48.03
2018-10-18T03:19:57.750Z,56.67
2018-10-18T03:22:25.510Z,49.87
2018-10-18T03:24:53.239Z,51.67
2018-10-18T03:27:20.835Z,50.97
2018-10-18T03:29:48.396Z,45.90
2018-10-18T03:32:16.607Z,47.20
2018-10-18T03:34:44.207Z,50.37
2018-10-18T03:37:11.742Z,44.67
2018-10-18T03:39:39.340Z,47.83
2018-10-18T03:42:07.007Z,50.33
2018-10-18T03:44:34.753Z,46.87
2018-10-18T03:47:02.286Z,48.73
2018-10-18T03:49:29.825Z,50.33
2018-10-18T03:51:57.451Z,52.37
2018-10-18T03:54:24.968Z,48.53
2018-10-18T03:56:52.535Z,47.93
2018-10-18T03:59:20.093Z,50.90
2018-10-18T04:01:47.889Z,51.13
2018-10-18T04:04:15.602Z,47.40
2018-10-18T04:06:43.178Z,46.97
2018-10-18T04:09:10.832Z,48.60
2018-10-18T04:11:38.401Z,50.07
2018-10-18T04:14:05.992Z,45.53
2018-10-18T04:16:33.567Z,48.40
2018-10-18T04:19:01.117Z,54.20
2018-10-18T04:21:28.780Z,53.47
2018-10-18T04:23:56.315Z,49.87
2018-10-18T04:26:23.897Z,46.97
2018-10-18T04:28:51.443Z,49.63
2018-10-18T04:31:19.022Z,47.17
2018-10-18T04:33:46.688Z,44.60
2018-10-18T04:36:14.360Z,46.93
2018-10-18T04:38:41.952Z,44.13
2018-10-18T04:41:09.604Z,49.37
2018-10-18T04:43:37.181Z,50.07
2018-10-18T04:46:04.734Z,51.47
2018-10-18T04:48:32.571Z,47.63
2018-10-18T04:50:59.967Z,46.33
2018-10-18T04:53:27.574Z,48.37
2018-10-18T04:55:55.131Z,47.20
2018-10-18T04:58:22.732Z,45.47
2018-10-18T05:00:50.260Z,46.03
2018-10-18T05:03:17.920Z,46.25
2018-10-18T05:05:45.483Z,48.47
2018-10-18T05:08:13.086Z,46.03
2018-10-18T05:10:40.608Z,45.17
2018-10-18T05:13:08.513Z,46.87
2018-10-18T05:15:36.076Z,50.03
2018-10-18T05:18:03.691Z,53.03
2018-10-18T05:20:31.244Z,46.43
2018-10-18T05:22:58.826Z,46.33
2018-10-18T05:25:26.380Z,45.37
2018-10-18T05:27:54.167Z,46.77
2018-10-18T05:30:21.715Z,50.00
2018-10-18T05:32:49.305Z,47.63
2018-10-18T05:35:16.883Z,43.73
2018-10-18T05:37:44.521Z,45.33
2018-10-18T05:40:12.137Z,47.50
2018-10-18T05:42:39.827Z,45.90
2018-10-18T05:45:08.272Z,48.40
2018-10-18T05:47:35.855Z,49.13
2018-10-18T05:50:03.480Z,48.60
2018-10-18T05:52:31.096Z,45.97
2018-10-18T05:54:58.718Z,46.60
2018-10-18T05:57:26.378Z,46.70
2018-10-18T05:59:53.924Z,57.07
2018-10-18T06:02:21.511Z,54.60
2018-10-18T06:04:49.077Z,47.73
2018-10-18T06:07:16.709Z,46.65
2018-10-18T06:09:44.258Z,51.13
2018-10-18T06:12:11.857Z,45.65
2018-10-18T06:14:42.140Z,50.27
2018-10-18T06:17:09.783Z,49.43
2018-10-18T06:19:37.375Z,49.03
2018-10-18T06:22:04.939Z,46.20
2018-10-18T06:24:32.514Z,49.73
2018-10-18T06:27:00.060Z,47.77
2018-10-18T06:29:27.655Z,47.40
2018-10-18T06:31:55.195Z,49.40
2018-10-18T06:34:22.945Z,47.83
2018-10-18T06:36:50.489Z,50.43
2018-10-18T06:39:18.139Z,46.47
2018-10-18T06:41:45.700Z,49.20
2018-10-18T06:44:13.278Z,49.60
2018-10-18T06:46:40.951Z,48.80
2018-10-18T06:49:08.622Z,48.57
2018-10-18T06:51:36.070Z,47.43
2018-10-18T06:54:04.726Z,49.53
2018-10-18T06:56:33.715Z,52.50
2018-10-18T06:59:01.811Z,48.07
2018-10-18T07:01:29.581Z,43.93
2018-10-18T07:03:57.368Z,45.87
2018-10-18T07:06:25.144Z,45.50
2018-10-18T07:08:52.921Z,46.87
2018-10-18T07:11:20.542Z,46.37
2018-10-18T07:13:48.133Z,44.25
2018-10-18T07:16:15.873Z,52.00
2018-10-18T07:18:43.674Z,44.83
2018-10-18T07:21:11.221Z,49.83
2018-10-18T07:23:38.776Z,46.97
2018-10-18T07:26:06.449Z,48.47
2018-10-18T07:28:34.087Z,60.87
2018-10-18T07:31:01.776Z,47.90
2018-10-18T07:33:29.295Z,46.90
2018-10-18T07:35:57.145Z,47.50
2018-10-18T07:38:24.851Z,40.63
2018-10-18T07:40:52.653Z,46.63
2018-10-18T07:43:20.350Z,43.80
2018-10-18T07:45:48.032Z,41.73
2018-10-18T07:48:15.665Z,36.53
2018-10-18T07:50:43.367Z,35.27
2018-10-18T07:53:11.455Z,37.50
2018-10-18T07:55:40.008Z,36.00
2018-10-18T07:58:07.629Z,29.87
2018-10-18T08:00:35.276Z,31.57
2018-10-18T08:03:02.773Z,30.67
2018-10-18T08:05:30.351Z,30.87
2018-10-18T08:07:57.935Z,29.03
2018-10-18T08:10:25.509Z,27.40
2018-10-18T08:12:53.097Z,26.90
2018-10-18T08:15:20.739Z,25.08
2018-10-18T08:17:48.477Z,20.50
2018-10-18T08:20:16.047Z,23.53
2018-10-18T08:22:43.703Z,30.27
2018-10-18T08:25:11.305Z,29.03
2018-10-18T08:27:38.937Z,31.17
2018-10-18T08:30:06.549Z,26.27
2018-10-18T08:32:34.130Z,25.87
2018-10-18T08:35:01.659Z,27.27
2018-10-18T08:37:29.494Z,33.87
2018-10-18T08:39:57.256Z,28.67
2018-10-18T08:42:25.001Z,28.60
2018-10-18T08:44:52.716Z,30.63
2018-10-18T08:47:20.503Z,29.35
2018-10-18T08:49:48.105Z,27.73
2018-10-18T08:52:15.670Z,26.47
2018-10-18T08:54:43.460Z,23.85
2018-10-18T08:57:11.056Z,23.73
2018-10-18T08:59:38.673Z,21.40
2018-10-18T09:02:06.195Z,25.03
2018-10-18T09:04:33.765Z,25.03
2018-10-18T09:07:01.445Z,25.07
2018-10-18T09:09:29.036Z,25.77
2018-10-18T09:11:56.704Z,26.93
2018-10-18T09:14:24.307Z,25.13
2018-10-18T09:16:51.880Z,24.83
2018-10-18T09:19:19.630Z,22.30
2018-10-18T09:21:47.150Z,23.43
2018-10-18T09:24:14.725Z,26.77
2018-10-18T09:26:42.361Z,23.98
2018-10-18T09:29:09.954Z,25.67
2018-10-18T09:31:38.359Z,27.00
2018-10-18T09:34:05.992Z,32.30
2018-10-18T09:36:33.625Z,26.83
2018-10-18T09:39:01.169Z,25.60
2018-10-18T09:41:28.991Z,24.27
2018-10-18T09:43:56.634Z,26.67
2018-10-18T09:46:24.199Z,21.52
2018-10-18T09:48:52.330Z,21.93
2018-10-18T09:51:20.309Z,21.23
2018-10-18T09:53:48.826Z,45.33
2018-10-18T09:56:16.914Z,19.63
2018-10-18T09:58:44.678Z,17.67
2018-10-18T10:01:12.623Z,18.70
2018-10-18T10:03:40.272Z,17.80
2018-10-18T10:06:07.956Z,15.43
2018-10-18T10:08:35.512Z,16.87
2018-10-18T10:11:03.109Z,15.57
2018-10-18T10:13:30.729Z,12.70
2018-10-18T10:15:58.310Z,10.23
2018-10-18T10:18:25.941Z,11.13
2018-10-18T10:20:53.685Z,56.20
2018-10-18T10:23:21.264Z,12.93
2018-10-18T10:25:48.866Z,10.97
2018-10-18T10:28:16.405Z,12.30
2018-10-18T10:30:44.021Z,12.20
2018-10-18T10:33:11.601Z,15.83
2018-10-18T10:35:39.248Z,13.77
2018-10-18T10:38:06.751Z,13.97
2018-10-18T10:40:34.353Z,13.10
2018-10-18T10:43:02.005Z,15.37
2018-10-18T10:45:29.613Z,17.97
2018-10-18T10:47:57.231Z,17.17
2018-10-18T10:50:24.733Z,20.57
2018-10-18T10:52:52.329Z,18.83
2018-10-18T10:55:19.909Z,16.17
2018-10-18T10:57:47.447Z,19.73
2018-10-18T11:00:15.096Z,16.47
2018-10-18T11:02:42.656Z,16.03
2018-10-18T11:05:10.255Z,19.47
2018-10-18T11:07:38.435Z,18.90
2018-10-18T11:10:06.454Z,20.03
2018-10-18T11:12:35.479Z,20.37
2018-10-18T11:15:03.733Z,20.17
2018-10-18T11:17:31.933Z,18.50
2018-10-18T11:20:00.115Z,18.47
2018-10-18T11:22:28.040Z,17.77
2018-10-18T11:24:56.408Z,18.17
2018-10-18T11:27:24.480Z,91.90
2018-10-18T11:29:52.653Z,21.07
2018-10-18T11:32:20.728Z,17.90
2018-10-18T11:34:48.680Z,13.53
2018-10-18T11:37:16.292Z,14.48
2018-10-18T11:39:43.861Z,14.20
2018-10-18T11:42:11.500Z,13.73
2018-10-18T11:44:39.019Z,12.37
2018-10-18T11:47:06.708Z,11.40
2018-10-18T11:49:34.304Z,13.00
2018-10-18T11:52:02.069Z,10.73
2018-10-18T11:54:29.677Z,11.07
2018-10-18T11:56:57.572Z,11.13
2018-10-18T11:59:26.299Z,9.40
2018-10-18T12:01:53.836Z,10.53
2018-10-18T12:04:21.430Z,9.20
2018-10-18T12:06:48.998Z,9.73
2018-10-18T12:09:16.566Z,8.77
2018-10-18T12:11:44.105Z,8.27
2018-10-18T12:14:11.752Z,7.70
2018-10-18T12:16:39.415Z,7.60
2018-10-18T12:19:07.044Z,7.33
2018-10-18T12:21:34.573Z,7.60
2018-10-18T12:24:02.206Z,7.80
2018-10-18T12:26:29.841Z,8.50
2018-10-18T12:28:57.475Z,7.03
2018-10-18T12:31:24.980Z,6.80
2018-10-18T12:33:52.536Z,6.40
2018-10-18T12:36:20.301Z,5.70
2018-10-18T12:38:47.890Z,5.60
2018-10-18T12:41:15.724Z,8.70
2018-10-18T12:43:43.302Z,4.68
2018-10-18T12:46:11.187Z,4.47
2018-10-18T12:48:38.852Z,3.60
2018-10-18T12:51:06.538Z,4.30
2018-10-18T12:53:34.397Z,3.37
2018-10-18T12:56:02.127Z,4.07
2018-10-18T12:58:29.806Z,3.67
2018-10-18T13:00:57.591Z,3.80
2018-10-18T13:03:25.643Z,3.97
2018-10-18T13:05:54.230Z,4.10
2018-10-18T13:08:21.859Z,4.30
2018-10-18T13:10:49.504Z,4.50
2018-10-18T13:13:17.113Z,5.00
2018-10-18T13:15:45.104Z,15.90
2018-10-18T13:18:12.818Z,5.20
2018-10-18T13:20:40.413Z,4.87
2018-10-18T13:23:08.392Z,4.70
2018-10-18T13:25:36.035Z,5.60
2018-10-18T13:28:04.018Z,6.83
2018-10-18T13:30:31.663Z,6.37
2018-10-18T13:32:59.342Z,9.30
2018-10-18T13:35:27.047Z,6.10
2018-10-18T13:37:54.623Z,6.60
2018-10-18T13:40:22.392Z,6.30
2018-10-18T13:42:50.018Z,6.50
2018-10-18T13:45:17.606Z,6.30
2018-10-18T13:47:45.263Z,8.60
2018-10-18T13:50:13.031Z,6.90
2018-10-18T13:52:40.505Z,7.73
2018-10-18T13:55:08.273Z,6.30
2018-10-18T13:57:35.816Z,6.83
2018-10-18T14:00:08.120Z,6.30
2018-10-18T14:02:35.706Z,7.00
2018-10-18T14:05:03.292Z,6.97
2018-10-18T14:07:30.999Z,29.27
2018-10-18T14:09:58.550Z,7.80
2018-10-18T14:12:26.090Z,6.90
2018-10-18T14:14:53.698Z,7.23
2018-10-18T14:17:21.380Z,6.53
2018-10-18T14:19:48.885Z,7.00
2018-10-18T14:22:16.441Z,7.30
2018-10-18T14:24:44.009Z,6.60
2018-10-18T14:27:11.581Z,6.43
2018-10-18T14:29:39.153Z,6.10
2018-10-18T14:32:06.847Z,4.77
2018-10-18T14:34:34.439Z,5.67
2018-10-18T14:37:01.978Z,3.93
2018-10-18T14:39:29.589Z,3.90
2018-10-18T14:41:57.148Z,3.63
2018-10-18T14:44:24.810Z,3.30
2018-10-18T14:46:52.363Z,2.93
2018-10-18T14:49:19.965Z,4.10
2018-10-18T14:51:47.494Z,2.43
2018-10-18T14:54:15.063Z,1.87
2018-10-18T14:56:42.594Z,1.80
2018-10-18T14:59:10.233Z,2.10
2018-10-18T15:01:37.727Z,3.80
2018-10-18T15:04:05.247Z,1.97
2018-10-18T15:06:32.827Z,1.87
2018-10-18T15:09:00.392Z,2.10
2018-10-18T15:11:27.974Z,52.53
2018-10-18T15:13:55.512Z,7.23
2018-10-18T15:16:23.227Z,2.60
2018-10-18T15:18:50.847Z,2.67
2018-10-18T15:21:18.455Z,2.62
2018-10-18T15:23:45.982Z,2.73
2018-10-18T15:26:13.566Z,4.07
2018-10-18T15:28:41.114Z,3.50
2018-10-18T15:31:08.624Z,4.10
2018-10-18T15:33:36.203Z,3.73
2018-10-18T15:36:03.816Z,4.10
2018-10-18T15:38:31.674Z,4.13
2018-10-18T15:40:59.162Z,4.72
2018-10-18T15:43:26.754Z,4.47
2018-10-18T15:45:54.270Z,4.30
2018-10-18T15:48:22.009Z,4.27
2018-10-18T15:50:49.577Z,4.47
2018-10-18T15:53:17.377Z,3.73
2018-10-18T15:55:45.122Z,6.83
2018-10-18T15:58:20.982Z,3.53
2018-10-18T16:00:48.679Z,3.10
2018-10-18T16:07:54.781Z,2.77
2018-10-18T16:10:22.672Z,2.70
2018-10-18T16:12:52.371Z,2.50
2018-10-18T16:15:20.072Z,2.40
2018-10-18T16:17:47.941Z,2.90
2018-10-18T16:20:15.863Z,2.80
2018-10-18T16:22:43.511Z,2.83
2018-10-18T16:25:11.421Z,2.70
2018-10-18T16:27:38.963Z,2.50
2018-10-18T16:30:08.907Z,2.57
2018-10-18T16:32:36.625Z,3.23
2018-10-18T16:35:04.367Z,2.90
2018-10-18T16:37:31.906Z,22.87
2018-10-18T16:40:00.541Z,3.73
2018-10-18T16:42:29.510Z,3.23
2018-10-18T16:44:58.431Z,4.17
2018-10-18T16:47:26.403Z,4.03
2018-10-18T16:49:54.000Z,3.73
2018-10-18T16:52:21.973Z,4.10
2018-10-18T16:54:50.100Z,4.53
2018-10-18T16:57:18.747Z,5.60
2018-10-18T16:59:46.671Z,5.63
2018-10-18T17:02:15.831Z,3.83
2018-10-18T17:04:43.525Z,4.90
2018-10-18T17:07:11.360Z,4.40
2018-10-18T17:09:38.984Z,4.93
2018-10-18T17:12:07.643Z,5.00
2018-10-18T17:14:35.374Z,5.30
2018-10-18T17:17:04.250Z,6.10
2018-10-18T17:19:31.965Z,9.80
2018-10-18T17:21:59.577Z,10.40
2018-10-18T17:24:27.349Z,10.57
2018-10-18T17:26:56.213Z,12.45
2018-10-18T17:29:23.804Z,11.75
2018-10-18T17:31:51.375Z,11.37
2018-10-18T17:34:19.075Z,11.82
2018-10-18T17:36:46.561Z,13.27
2018-10-18T17:39:14.158Z,11.70
2018-10-18T17:41:41.713Z,11.93
2018-10-18T17:44:09.335Z,16.57
2018-10-18T17:46:36.889Z,11.88
2018-10-18T17:49:04.465Z,14.17
2018-10-18T17:51:31.998Z,11.10
2018-10-18T17:56:21.256Z,8.40
2018-10-18T17:58:48.689Z,12.07
2018-10-18T18:01:16.280Z,7.35
2018-10-18T18:03:43.805Z,6.97
2018-10-18T18:06:11.499Z,6.80
2018-10-18T18:08:38.907Z,5.77
2018-10-18T18:11:06.671Z,6.37
2018-10-18T18:13:34.203Z,7.47
2018-10-18T18:16:01.927Z,7.47
2018-10-18T18:18:29.443Z,9.20
2018-10-18T18:20:57.009Z,9.67
2018-10-18T18:23:24.536Z,5.97
2018-10-18T18:25:52.091Z,5.83
2018-10-18T18:28:19.615Z,6.00
2018-10-18T18:30:47.285Z,5.70
2018-10-18T18:33:15.036Z,5.37
2018-10-18T18:35:42.610Z,5.60
2018-10-18T18:38:10.248Z,7.83
2018-10-18T18:40:37.812Z,6.33
2018-10-18T18:43:05.516Z,6.20
2018-10-18T18:45:33.274Z,11.83
2018-10-18T18:48:01.033Z,7.47
2018-10-18T18:50:28.622Z,9.37
2018-10-18T18:52:56.308Z,7.23
2018-10-18T18:55:26.624Z,9.43
2018-10-18T18:57:56.919Z,9.53
2018-10-18T19:00:24.560Z,9.33
2018-10-18T19:02:52.223Z,8.80
2018-10-18T19:05:19.986Z,7.50
2018-10-18T19:07:47.588Z,11.40
2018-10-18T19:10:15.121Z,8.10
2018-10-18T19:12:42.717Z,10.23
2018-10-18T19:15:10.366Z,12.33
2018-10-18T19:17:37.900Z,11.87
2018-10-18T19:20:05.467Z,12.57
2018-10-18T19:22:33.211Z,15.32
2018-10-18T19:25:00.730Z,13.37
2018-10-18T19:27:28.463Z,13.73
2018-10-18T19:29:55.990Z,12.73
2018-10-18T19:32:23.550Z,12.20
2018-10-18T19:34:51.191Z,12.63
2018-10-18T19:37:18.733Z,18.37
2018-10-18T19:39:46.284Z,15.93
2018-10-18T19:42:13.883Z,15.67
2018-10-18T19:44:41.438Z,21.67
2018-10-18T19:47:09.082Z,19.55
2018-10-18T19:49:36.634Z,19.40
2018-10-18T19:52:04.248Z,15.40
2018-10-18T19:54:31.962Z,18.70
2018-10-18T19:56:59.617Z,20.50
2018-10-18T19:59:27.237Z,18.90
2018-10-18T20:01:54.787Z,19.63
2018-10-18T20:04:22.389Z,19.90
2018-10-18T20:06:49.926Z,15.43
2018-10-18T20:09:17.630Z,17.62
2018-10-18T20:11:45.154Z,18.70
2018-10-18T20:14:12.771Z,20.77
2018-10-18T20:16:40.333Z,18.43
2018-10-18T20:19:08.497Z,18.12
2018-10-18T20:21:36.032Z,19.03
2018-10-18T20:24:03.613Z,20.17
2018-10-18T20:26:31.193Z,23.80
2018-10-18T20:28:58.763Z,22.00
2018-10-18T20:31:26.296Z,19.43
2018-10-18T20:33:53.927Z,27.23
2018-10-18T20:36:21.474Z,21.10
2018-10-18T20:38:49.061Z,18.60
2018-10-18T20:41:16.716Z,21.92
2018-10-18T20:43:44.224Z,19.73
2018-10-18T20:46:11.823Z,19.60
2018-10-18T20:48:39.373Z,15.23
2018-10-18T20:51:06.920Z,16.13
2018-10-18T20:53:34.647Z,14.70
2018-10-18T20:56:02.190Z,18.77
2018-10-18T20:58:29.892Z,16.60
2018-10-18T21:00:57.480Z,17.10
2018-10-18T21:03:25.085Z,15.45
2018-10-18T21:05:52.745Z,19.73
2018-10-18T21:08:20.535Z,21.20
2018-10-18T21:10:48.120Z,19.90
2018-10-18T21:13:15.686Z,19.98
2018-10-18T21:15:43.320Z,17.70
2018-10-18T21:18:10.902Z,19.60
2018-10-18T21:20:38.578Z,20.30
2018-10-18T21:23:06.331Z,19.97
2018-10-18T21:25:33.892Z,17.48
2018-10-18T21:28:01.553Z,17.83
2018-10-18T21:30:29.298Z,17.93
2018-10-18T21:32:57.043Z,16.20
2018-10-18T21:35:24.884Z,17.80
2018-10-18T21:37:52.578Z,16.43
2018-10-18T21:40:20.367Z,16.55
2018-10-18T21:42:48.137Z,16.27
2018-10-18T21:45:15.847Z,15.98
2018-10-18T21:47:43.437Z,15.43
2018-10-18T21:50:11.037Z,19.10
2018-10-18T21:52:38.641Z,14.90
2018-10-18T21:55:06.320Z,16.47
2018-10-18T21:57:33.898Z,19.43
2018-10-18T22:00:02.470Z,19.10
2018-10-18T22:02:29.998Z,16.93
2018-10-18T22:04:57.623Z,17.27
2018-10-18T22:07:25.169Z,15.15
2018-10-18T22:09:52.753Z,12.77
2018-10-18T22:12:20.434Z,14.93
2018-10-18T22:14:47.988Z,13.23
2018-10-18T22:17:15.654Z,15.32
2018-10-18T22:19:43.128Z,14.20
2018-10-18T22:22:10.678Z,13.67
2018-10-18T22:24:38.356Z,19.60
2018-10-18T22:27:06.122Z,13.90
2018-10-18T22:29:33.869Z,17.37
2018-10-18T22:32:01.499Z,14.17
2018-10-18T22:34:29.147Z,15.52
2018-10-18T22:36:56.869Z,10.60
2018-10-18T22:39:24.618Z,13.20
2018-10-18T22:41:52.193Z,13.73
2018-10-18T22:44:19.840Z,11.80
2018-10-18T22:46:47.547Z,13.53
2018-10-18T22:49:15.121Z,10.83
2018-10-18T22:51:42.658Z,11.83
2018-10-18T22:54:10.247Z,11.50
2018-10-18T22:56:38.040Z,13.13
2018-10-18T22:59:05.681Z,12.83
2018-10-18T23:01:33.228Z,10.63
2018-10-18T23:04:00.798Z,12.33
2018-10-18T23:06:28.350Z,14.27
2018-10-18T23:08:55.937Z,9.97
2018-10-18T23:13:57.292Z,11.87
2018-10-18T23:16:24.884Z,12.37
2018-10-18T23:18:52.452Z,11.23
2018-10-18T23:21:19.968Z,9.93
2018-10-18T23:23:47.497Z,10.77
2018-10-18T23:26:15.071Z,10.43
2018-10-18T23:28:42.666Z,11.23
2018-10-18T23:31:10.227Z,13.57
2018-10-18T23:33:37.784Z,11.47
2018-10-18T23:36:05.442Z,12.27
2018-10-18T23:38:32.986Z,9.93
2018-10-18T23:41:00.518Z,11.93
2018-10-18T23:43:28.109Z,11.93
2018-10-18T23:45:55.803Z,12.10
2018-10-18T23:48:23.368Z,16.17
2018-10-18T23:50:51.017Z,18.07
2018-10-18T23:53:18.643Z,11.35
2018-10-18T23:55:46.193Z,13.47
2018-10-18T23:58:13.773Z,12.17
